Time;durP1;ratioP1;P1;durP2;ratioP2;P2;SDS_P1;SDS_P2;PMS_P1;PMS_P2;Temp;Humidity;BMP_temperature;BMP_pressure;BME280_temperature;BME280_humidity;BME280_pressure;Samples;Min_cycle;Max_cycle;Signal;HPM_P1;HPM_P2
2021/12/24 00:00:54;;;;;;;3.30;1.77;;;9.70;68.60;;;;;;5056112;28;20106;-76
2021/12/24 00:03:20;;;;;;;3.67;2.17;;;9.80;68.40;;;;;;5056183;28;20025;-76
2021/12/24 00:05:45;;;;;;;7.05;2.10;;;9.80;68.00;;;;;;5055997;28;20426;-74
2021/12/24 00:08:11;;;;;;;3.75;2.13;;;9.70;68.10;;;;;;5055746;28;20458;-75
2021/12/24 00:10:39;;;;;;;3.90;2.15;;;9.70;68.10;;;;;;5055843;28;20135;-76
2021/12/24 00:13:09;;;;;;;3.50;1.75;;;9.80;67.80;;;;;;5055722;28;20021;-75
2021/12/24 00:18:13;;;;;;;4.45;1.88;;;9.80;67.50;;;;;;5055720;28;20389;-74
2021/12/24 00:36:37;;;;;;;2.05;1.30;;;9.80;66.40;;;;;;5055488;28;20024;-76
2021/12/24 00:39:03;;;;;;;4.50;1.50;;;9.80;66.20;;;;;;5055244;28;20389;-76
2021/12/24 00:41:28;;;;;;;3.20;1.52;;;9.90;66.10;;;;;;5055843;28;20025;-75
2021/12/24 00:43:54;;;;;;;3.38;1.85;;;10.00;65.70;;;;;;5069901;28;20036;-73
2021/12/24 00:46:19;;;;;;;4.28;1.50;;;10.00;65.50;;;;;;5055158;28;20120;-76
2021/12/24 00:48:46;;;;;;;3.47;1.52;;;9.90;65.50;;;;;;5054874;28;20048;-73
2021/12/24 00:51:23;;;;;;;4.97;1.65;;;10.00;65.20;;;;;;5054845;28;20028;-71
2021/12/24 00:56:15;;;;;;;4.38;1.60;;;10.00;64.80;;;;;;5054702;28;20470;-73
2021/12/24 00:58:42;;;;;;;4.75;1.52;;;10.00;64.50;;;;;;5054918;28;20017;-70
2021/12/24 01:01:11;;;;;;;4.55;1.88;;;9.90;64.40;;;;;;5054929;28;20478;-75
2021/12/24 01:03:37;;;;;;;8.02;2.15;;;9.90;64.50;;;;;;5054592;28;20028;-73
2021/12/24 01:06:04;;;;;;;3.63;1.95;;;9.80;64.30;;;;;;5036522;28;20567;-73
2021/12/24 01:08:29;;;;;;;3.63;1.58;;;9.80;64.10;;;;;;5054646;28;20541;-74
2021/12/24 01:10:58;;;;;;;3.72;1.60;;;9.80;64.10;;;;;;5054865;28;20112;-75
2021/12/24 01:13:26;;;;;;;5.90;1.70;;;9.70;64.30;;;;;;5054492;28;20533;-73
2021/12/24 01:18:52;;;;;;;2.97;1.65;;;9.70;64.50;;;;;;5054634;28;20025;-75
2021/12/24 01:21:25;;;;;;;3.40;1.85;;;9.70;64.90;;;;;;5055088;28;20076;-74
2021/12/24 01:23:55;;;;;;;7.32;1.73;;;9.70;65.00;;;;;;5054514;28;20021;-75
2021/12/24 01:26:37;;;;;;;5.40;1.98;;;9.70;65.00;;;;;;5054166;28;20654;-74
2021/12/24 01:40:18;;;;;;;2.88;1.63;;;9.90;65.00;;;;;;5063291;28;20039;-75
2021/12/24 01:42:45;;;;;;;5.15;1.98;;;9.80;64.90;;;;;;5054141;28;20101;-74
2021/12/24 01:45:21;;;;;;;3.60;1.48;;;9.90;65.10;;;;;;5053480;28;20078;-71
2021/12/24 01:47:49;;;;;;;3.78;1.50;;;9.90;65.20;;;;;;5053745;28;20029;-74
2021/12/24 01:50:15;;;;;;;4.00;2.15;;;9.90;65.30;;;;;;5053795;28;20021;-72
2021/12/24 01:52:41;;;;;;;3.63;1.65;;;9.90;65.30;;;;;;5053837;28;20032;-76
2021/12/24 01:55:08;;;;;;;5.20;1.80;;;10.00;65.30;;;;;;5053739;28;20029;-72
2021/12/24 01:57:36;;;;;;;4.80;1.90;;;10.00;65.40;;;;;;5035950;28;20039;-76
2021/12/24 02:00:05;;;;;;;3.33;1.83;;;10.00;65.50;;;;;;5053714;28;20530;-75
2021/12/24 02:02:31;;;;;;;4.15;2.08;;;9.90;66.00;;;;;;5053667;28;20025;-72
2021/12/24 02:04:57;;;;;;;3.45;1.80;;;9.90;66.20;;;;;;5053300;28;20044;-74
2021/12/24 02:07:22;;;;;;;2.60;1.85;;;10.00;66.20;;;;;;5068449;28;20056;-75
2021/12/24 02:09:48;;;;;;;4.25;1.95;;;10.00;66.10;;;;;;5053613;28;20048;-73
2021/12/24 02:12:15;;;;;;;6.78;1.80;;;10.00;66.00;;;;;;5053379;28;20087;-75
2021/12/24 02:14:43;;;;;;;2.20;1.40;;;10.00;66.20;;;;;;5053186;28;20052;-75
2021/12/24 02:28:24;;;;;;;4.30;2.45;;;10.10;66.20;;;;;;5053509;28;20032;-74
2021/12/24 02:30:50;;;;;;;4.43;1.98;;;10.10;66.40;;;;;;5052902;28;20075;-73
2021/12/24 02:33:16;;;;;;;2.55;1.52;;;10.00;66.20;;;;;;5053057;28;20481;-73
2021/12/24 02:35:42;;;;;;;3.40;1.80;;;10.00;66.30;;;;;;5052520;28;20052;-73
2021/12/24 02:38:08;;;;;;;4.97;2.15;;;10.00;66.50;;;;;;5052834;28;20493;-74
2021/12/24 02:40:35;;;;;;;2.70;1.65;;;10.00;66.60;;;;;;5052442;28;20040;-75
2021/12/24 02:43:01;;;;;;;2.92;1.90;;;10.00;66.60;;;;;;5052958;28;20031;-75
2021/12/24 02:45:31;;;;;;;5.47;2.00;;;10.00;66.80;;;;;;5052674;28;20025;-74
2021/12/24 02:56:15;;;;;;;3.80;2.00;;;9.90;67.40;;;;;;5010984;28;20030;-76
2021/12/24 02:58:44;;;;;;;3.35;2.10;;;9.90;67.60;;;;;;5043905;28;20040;-77
2021/12/24 03:01:12;;;;;;;4.30;2.10;;;9.90;67.80;;;;;;5052713;28;20021;-76
2021/12/24 03:03:38;;;;;;;3.50;2.10;;;9.90;68.00;;;;;;5068279;28;20028;-76
2021/12/24 03:06:05;;;;;;;3.47;1.83;;;9.90;68.00;;;;;;5052727;28;20036;-75
2021/12/24 03:08:31;;;;;;;4.78;1.95;;;9.90;68.00;;;;;;5052777;28;20104;-77
2021/12/24 03:10:58;;;;;;;3.00;1.80;;;9.90;68.10;;;;;;5052669;28;20095;-76
2021/12/24 03:13:25;;;;;;;5.10;1.88;;;9.90;68.10;;;;;;5067998;28;20373;-76
2021/12/24 03:15:53;;;;;;;7.18;1.70;;;10.00;68.00;;;;;;5052530;28;20036;-76
2021/12/24 03:18:26;;;;;;;6.35;1.92;;;10.00;67.90;;;;;;5054944;28;20024;-76
2021/12/24 03:21:00;;;;;;;3.30;1.70;;;9.90;68.20;;;;;;5056382;28;20078;-75
2021/12/24 03:23:36;;;;;;;3.55;1.58;;;9.90;68.30;;;;;;5056615;28;20021;-76
2021/12/24 03:26:02;;;;;;;3.58;1.92;;;9.90;68.30;;;;;;5056496;28;20029;-74
2021/12/24 03:28:28;;;;;;;3.75;2.30;;;9.90;68.30;;;;;;5056208;28;20025;-77
2021/12/24 03:30:53;;;;;;;4.88;1.73;;;9.90;68.20;;;;;;5056168;28;20028;-77
2021/12/24 03:33:19;;;;;;;4.15;1.58;;;9.90;68.40;;;;;;5056358;28;20040;-78
2021/12/24 03:35:44;;;;;;;5.93;1.88;;;9.90;68.50;;;;;;5056559;28;20103;-76
2021/12/24 03:38:10;;;;;;;2.22;1.67;;;9.90;68.40;;;;;;5056163;28;20481;-73
2021/12/24 03:40:36;;;;;;;5.18;2.10;;;9.90;68.60;;;;;;5056140;28;20479;-75
2021/12/24 03:43:01;;;;;;;3.72;1.60;;;9.90;68.80;;;;;;5056120;28;20049;-76
2021/12/24 03:45:40;;;;;;;3.25;1.85;;;9.80;68.70;;;;;;5056020;28;20393;-75
2021/12/24 03:48:15;;;;;;;4.65;1.65;;;9.80;68.90;;;;;;5054992;28;20389;-75
2021/12/24 03:50:52;;;;;;;2.67;1.88;;;9.80;68.90;;;;;;5055845;28;20461;-76
2021/12/24 03:56:02;;;;;;;4.15;1.85;;;9.70;69.10;;;;;;5056322;28;20496;-74
2021/12/24 03:58:27;;;;;;;2.30;1.52;;;9.70;69.20;;;;;;5055805;28;20108;-75
2021/12/24 04:00:53;;;;;;;4.47;1.70;;;9.70;69.30;;;;;;5055386;28;20044;-75
2021/12/24 04:03:18;;;;;;;6.10;2.03;;;9.70;69.50;;;;;;5055553;28;20032;-75
2021/12/24 04:05:44;;;;;;;4.47;1.55;;;9.70;69.40;;;;;;5055453;28;20033;-74
2021/12/24 04:08:10;;;;;;;1.92;1.40;;;9.70;69.50;;;;;;5055153;28;20032;-74
2021/12/24 04:13:04;;;;;;;2.78;1.65;;;9.70;69.30;;;;;;5055902;28;20487;-75
2021/12/24 04:15:29;;;;;;;5.05;2.20;;;9.70;69.20;;;;;;5055790;28;20155;-74
2021/12/24 04:17:55;;;;;;;4.90;1.83;;;9.70;69.10;;;;;;5071030;28;20064;-75
2021/12/24 04:25:49;;;;;;;3.45;1.77;;;9.60;69.90;;;;;;5055566;28;20542;-72
2021/12/24 04:28:14;;;;;;;4.10;1.80;;;9.60;69.90;;;;;;5055362;28;20029;-74
2021/12/24 04:30:46;;;;;;;6.13;1.73;;;9.60;69.90;;;;;;5055380;28;20074;-74
2021/12/24 04:35:59;;;;;;;3.20;1.83;;;9.60;69.90;;;;;;5055119;28;20197;-74
2021/12/24 04:52:02;;;;;;;5.82;2.20;;;9.60;70.10;;;;;;5055435;28;20166;-73
2021/12/24 05:03:07;;;;;;;6.07;2.50;;;9.40;70.70;;;;;;5013255;28;20065;-76
2021/12/24 05:05:42;;;;;;;7.63;2.33;;;9.50;70.60;;;;;;5039556;28;20041;-76
2021/12/24 05:08:19;;;;;;;;;;;9.40;70.50;;;;;;5055454;28;20021;-74
2021/12/24 05:10:45;;;;;;;6.22;2.58;;;9.40;70.60;;;;;;5055212;28;20361;-75
2021/12/24 05:13:13;;;;;;;6.28;2.13;;;9.40;70.70;;;;;;5056847;28;20059;-75
2021/12/24 05:15:41;;;;;;;3.50;2.30;;;9.40;70.80;;;;;;5057038;28;20549;-75
2021/12/24 05:23:38;;;;;;;2.78;1.88;;;9.40;71.00;;;;;;5054641;28;20031;-75
2021/12/24 05:26:04;;;;;;;3.60;2.08;;;9.40;71.00;;;;;;5054403;28;20036;-76
2021/12/24 05:28:29;;;;;;;3.65;2.15;;;9.40;70.90;;;;;;5054670;28;20025;-75
2021/12/24 05:30:55;;;;;;;4.93;2.85;;;9.40;70.90;;;;;;5054429;28;20079;-76
2021/12/24 05:33:20;;;;;;;5.10;2.22;;;9.40;70.80;;;;;;5054183;28;20095;-75
2021/12/24 05:35:46;;;;;;;3.75;2.42;;;9.30;71.10;;;;;;5054306;28;20033;-75
2021/12/24 05:38:15;;;;;;;6.20;2.58;;;9.30;71.20;;;;;;5054046;28;20050;-76
2021/12/24 05:40:41;;;;;;;6.60;2.50;;;9.30;71.40;;;;;;5053512;28;20517;-76
2021/12/24 05:43:07;;;;;;;5.88;2.15;;;9.30;71.50;;;;;;5054157;28;20036;-75
2021/12/24 05:45:32;;;;;;;4.25;2.97;;;9.30;71.60;;;;;;5054217;28;20040;-75
2021/12/24 05:47:58;;;;;;;4.45;2.70;;;9.30;72.00;;;;;;5053897;28;20021;-75
2021/12/24 05:50:24;;;;;;;3.90;2.08;;;9.20;72.10;;;;;;5069310;28;20033;-74
2021/12/24 05:52:49;;;;;;;2.78;1.92;;;9.20;72.20;;;;;;5053636;28;20484;-72
2021/12/24 05:55:15;;;;;;;4.53;2.33;;;9.10;72.80;;;;;;5053821;28;20036;-74
2021/12/24 05:57:41;;;;;;;5.15;2.17;;;9.20;72.80;;;;;;5054010;28;20120;-72
2021/12/24 06:00:09;;;;;;;4.35;2.80;;;9.20;72.80;;;;;;5069018;28;20025;-71
2021/12/24 06:02:34;;;;;;;2.90;2.35;;;9.20;72.80;;;;;;5053254;28;20029;-72
2021/12/24 06:05:00;;;;;;;4.10;2.55;;;9.20;72.90;;;;;;5053534;28;20100;-72
2021/12/24 06:07:26;;;;;;;5.38;2.90;;;9.20;72.90;;;;;;5053629;28;20040;-72
2021/12/24 06:09:51;;;;;;;3.33;2.13;;;9.20;73.10;;;;;;5053648;28;20383;-74
2021/12/24 06:12:17;;;;;;;2.47;1.83;;;9.10;73.20;;;;;;5053469;28;20036;-72
2021/12/24 06:14:45;;;;;;;4.53;2.13;;;9.20;73.10;;;;;;5053423;28;20354;-72
2021/12/24 06:17:15;;;;;;;5.82;2.80;;;9.20;73.40;;;;;;5053322;28;20429;-71
2021/12/24 06:19:42;;;;;;;4.00;2.03;;;9.10;73.40;;;;;;5053313;28;20025;-73
2021/12/24 06:22:08;;;;;;;4.28;2.20;;;9.10;73.30;;;;;;5052923;28;20025;-72
2021/12/24 06:24:34;;;;;;;4.78;2.35;;;9.10;73.40;;;;;;5053232;28;20040;-76
2021/12/24 06:26:59;;;;;;;4.63;2.40;;;9.10;73.50;;;;;;5052859;28;20045;-75
2021/12/24 06:29:25;;;;;;;3.35;2.53;;;9.10;73.60;;;;;;5052938;28;20355;-74
2021/12/24 06:31:51;;;;;;;4.85;2.08;;;9.10;73.70;;;;;;5053114;28;20028;-72
2021/12/24 06:34:17;;;;;;;4.78;2.78;;;9.10;73.80;;;;;;5052662;28;20049;-75
2021/12/24 06:36:46;;;;;;;4.78;2.75;;;9.10;74.10;;;;;;5052615;28;20083;-72
2021/12/24 06:39:12;;;;;;;3.58;2.10;;;9.10;74.00;;;;;;5052483;28;20082;-73
2021/12/24 06:41:38;;;;;;;3.92;2.30;;;9.10;74.00;;;;;;5052762;28;20025;-74
2021/12/24 06:44:05;;;;;;;5.57;2.25;;;9.20;73.90;;;;;;5052582;28;20088;-74
2021/12/24 06:46:31;;;;;;;6.75;2.25;;;9.10;74.00;;;;;;5052445;28;20033;-75
2021/12/24 06:48:56;;;;;;;3.63;1.98;;;9.20;74.00;;;;;;5052096;28;20489;-74
2021/12/24 06:51:28;;;;;;;4.55;1.98;;;9.20;74.10;;;;;;5052457;28;20378;-72
2021/12/24 06:53:54;;;;;;;4.93;2.60;;;9.10;74.20;;;;;;5051969;28;20357;-76
2021/12/24 06:56:20;;;;;;;5.32;2.22;;;9.10;74.40;;;;;;5052156;28;20029;-74
2021/12/24 06:58:46;;;;;;;4.72;2.53;;;9.10;74.60;;;;;;5052280;28;20117;-73
2021/12/24 07:01:12;;;;;;;5.65;2.90;;;9.00;74.70;;;;;;5051841;28;20477;-71
2021/12/24 07:03:38;;;;;;;4.30;2.58;;;9.00;74.80;;;;;;5051727;28;20029;-75
2021/12/24 07:06:04;;;;;;;5.85;2.67;;;9.00;74.90;;;;;;5052171;28;20036;-73
2021/12/24 07:08:30;;;;;;;3.38;2.05;;;9.00;74.90;;;;;;5052320;28;20461;-76
2021/12/24 07:10:56;;;;;;;3.20;2.17;;;9.10;75.00;;;;;;5052453;28;20100;-74
2021/12/24 07:13:21;;;;;;;5.53;2.53;;;9.10;74.80;;;;;;5052238;28;20469;-72
2021/12/24 07:15:47;;;;;;;4.00;2.38;;;9.20;74.70;;;;;;5052371;28;20032;-72
2021/12/24 07:18:12;;;;;;;2.60;1.88;;;9.10;74.80;;;;;;5051636;28;20121;-71
2021/12/24 07:20:38;;;;;;;5.30;2.53;;;9.10;75.00;;;;;;5052100;28;20029;-75
2021/12/24 07:23:04;;;;;;;4.47;2.53;;;9.10;74.90;;;;;;5051977;28;20520;-72
2021/12/24 07:25:30;;;;;;;4.45;2.70;;;9.10;75.00;;;;;;5052016;28;20056;-72
2021/12/24 07:27:55;;;;;;;9.50;2.58;;;9.10;74.90;;;;;;5052156;28;20386;-72
2021/12/24 07:30:21;;;;;;;8.45;2.70;;;9.10;75.00;;;;;;5051797;28;20112;-73
2021/12/24 07:32:47;;;;;;;3.35;2.42;;;9.10;75.10;;;;;;5052062;28;20025;-71
2021/12/24 07:35:13;;;;;;;2.97;2.08;;;9.00;75.30;;;;;;5051628;28;20063;-72
2021/12/24 07:37:39;;;;;;;5.25;2.30;;;9.00;76.30;;;;;;5051799;28;20080;-71
2021/12/24 07:40:06;;;;;;;4.82;2.63;;;9.00;75.40;;;;;;5051613;28;20021;-71
2021/12/24 07:42:32;;;;;;;4.93;2.47;;;9.00;75.60;;;;;;5051684;28;20021;-72
2021/12/24 07:44:58;;;;;;;4.13;2.45;;;9.00;75.60;;;;;;5051707;28;20382;-70
2021/12/24 07:47:35;;;;;;;3.38;1.80;;;9.00;75.60;;;;;;5051942;28;20033;-71
2021/12/24 07:50:15;;;;;;;3.88;2.05;;;9.00;75.70;;;;;;5051982;28;20045;-71
2021/12/24 07:52:42;;;;;;;3.38;1.70;;;9.10;75.60;;;;;;5051649;28;20099;-74
2021/12/24 07:55:10;;;;;;;4.97;2.67;;;9.10;75.50;;;;;;5051551;28;20029;-73
2021/12/24 07:57:37;;;;;;;2.53;1.75;;;9.00;75.40;;;;;;5051651;28;20036;-74
2021/12/24 08:00:06;;;;;;;3.45;1.90;;;9.00;75.50;;;;;;5051799;28;20028;-74
2021/12/24 08:02:31;;;;;;;4.15;2.10;;;9.10;75.60;;;;;;5051701;28;20025;-74
2021/12/24 08:04:57;;;;;;;1.50;1.38;;;9.00;75.60;;;;;;5054619;28;20025;-76
2021/12/24 08:07:23;;;;;;;2.90;2.38;;;9.00;75.60;;;;;;5055505;28;20037;-77
2021/12/24 08:09:50;;;;;;;2.97;1.85;;;9.00;75.80;;;;;;5055780;28;20469;-75
2021/12/24 08:12:16;;;;;;;3.80;1.45;;;9.00;75.90;;;;;;5055358;28;20374;-74
2021/12/24 08:14:42;;;;;;;2.10;1.58;;;9.00;75.90;;;;;;5070637;28;20028;-76
2021/12/24 08:17:09;;;;;;;2.10;1.70;;;9.00;76.00;;;;;;5070393;28;20021;-75
2021/12/24 08:19:34;;;;;;;2.30;1.80;;;9.00;76.30;;;;;;5054917;28;20482;-76
2021/12/24 08:22:00;;;;;;;5.25;2.28;;;9.00;77.20;;;;;;5037056;28;20108;-74
2021/12/24 08:24:27;;;;;;;4.88;2.22;;;9.00;76.20;;;;;;5037148;28;20115;-74
2021/12/24 08:26:53;;;;;;;3.78;2.13;;;9.00;76.80;;;;;;5055158;28;20166;-74
2021/12/24 08:29:21;;;;;;;7.60;2.33;;;9.00;77.10;;;;;;5054908;28;20029;-75
2021/12/24 08:31:52;;;;;;;5.88;2.40;;;9.00;78.40;;;;;;5054551;28;20037;-82
2021/12/24 08:34:19;;;;;;;3.92;2.33;;;9.20;77.40;;;;;;5037395;28;20056;-85
2021/12/24 08:36:46;;;;;;;3.65;2.22;;;9.10;77.80;;;;;;5072698;28;20481;-75
2021/12/24 08:39:12;;;;;;;3.60;2.00;;;9.10;77.90;;;;;;5037465;28;20033;-75
2021/12/24 08:41:38;;;;;;;2.75;1.60;;;9.10;78.20;;;;;;5070937;28;20121;-83
2021/12/24 08:44:04;;;;;;;2.92;1.67;;;9.00;78.50;;;;;;5071482;28;20474;-89
2021/12/24 08:46:30;;;;;;;2.60;1.90;;;8.90;79.10;;;;;;5056058;28;20439;-88
2021/12/24 08:48:55;;;;;;;2.95;1.50;;;8.90;79.60;;;;;;5055190;28;20028;-86
2021/12/24 08:51:21;;;;;;;3.40;1.70;;;8.80;79.30;;;;;;5071384;28;20381;-86
2021/12/24 08:53:47;;;;;;;1.92;1.23;;;8.70;79.70;;;;;;5057614;28;20059;-78
2021/12/24 08:56:13;;;;;;;3.17;1.23;;;8.70;79.60;;;;;;5068397;28;20472;-75
2021/12/24 08:58:38;;;;;;;1.80;1.38;;;8.70;79.80;;;;;;5062474;28;20033;-74
2021/12/24 09:01:05;;;;;;;2.30;1.17;;;8.70;79.60;;;;;;5070553;28;20012;-79
2021/12/24 09:03:31;;;;;;;2.20;0.80;;;8.70;79.60;;;;;;5064548;28;20028;-82
2021/12/24 09:05:57;;;;;;;2.72;1.23;;;8.70;79.40;;;;;;5056389;28;20108;-83
2021/12/24 09:08:22;;;;;;;1.13;0.77;;;8.80;79.50;;;;;;5073290;28;20536;-82
2021/12/24 09:10:48;;;;;;;3.58;0.90;;;8.70;79.50;;;;;;5061932;28;20117;-85
2021/12/24 09:13:14;;;;;;;1.70;0.80;;;8.70;79.50;;;;;;5076378;28;20025;-83
2021/12/24 09:15:40;;;;;;;1.30;0.70;;;8.70;78.70;;;;;;5039823;28;20089;-76
2021/12/24 09:18:06;;;;;;;2.42;1.75;;;8.80;79.00;;;;;;5057120;28;20029;-83
2021/12/24 09:20:38;;;;;;;2.70;0.98;;;8.80;78.90;;;;;;5038325;28;20087;-73
2021/12/24 09:23:05;;;;;;;1.00;0.80;;;8.80;78.70;;;;;;5057164;28;20426;-74
2021/12/24 09:25:32;;;;;;;2.55;0.93;;;8.80;78.50;;;;;;5056700;28;20037;-75
2021/12/24 09:27:58;;;;;;;1.48;1.00;;;8.90;77.90;;;;;;5038255;28;20354;-76
2021/12/24 09:30:25;;;;;;;1.50;0.77;;;9.00;77.40;;;;;;5054315;28;20187;-74
2021/12/24 09:32:51;;;;;;;1.13;0.80;;;9.00;76.80;;;;;;5053937;28;20037;-76
2021/12/24 09:35:18;;;;;;;0.88;0.60;;;9.10;77.00;;;;;;5053811;28;20049;-76
2021/12/24 09:37:43;;;;;;;1.33;0.60;;;9.10;76.70;;;;;;5054397;28;20017;-76
2021/12/24 09:40:11;;;;;;;1.20;0.80;;;9.10;76.20;;;;;;5054051;28;20044;-75
2021/12/24 09:42:37;;;;;;;0.82;0.50;;;9.20;76.10;;;;;;5053968;28;20025;-76
2021/12/24 09:45:04;;;;;;;1.88;0.70;;;9.10;75.80;;;;;;5053706;28;20435;-77
2021/12/24 09:47:30;;;;;;;1.55;0.80;;;9.10;76.00;;;;;;5053937;28;20123;-74
2021/12/24 09:49:56;;;;;;;0.65;0.60;;;9.20;75.90;;;;;;5053928;28;20477;-74
2021/12/24 09:52:22;;;;;;;1.83;0.50;;;9.20;75.70;;;;;;5036041;28;20168;-74
2021/12/24 09:54:49;;;;;;;0.77;0.43;;;9.20;75.20;;;;;;5053312;28;20024;-73
2021/12/24 09:57:15;;;;;;;1.42;0.70;;;9.20;75.00;;;;;;5053749;28;20350;-72
2021/12/24 09:59:41;;;;;;;1.02;0.70;;;9.30;75.40;;;;;;5053591;28;20029;-76
2021/12/24 10:02:08;;;;;;;1.85;0.70;;;9.30;75.60;;;;;;5053380;28;20040;-72
2021/12/24 10:04:35;;;;;;;1.08;0.52;;;9.30;75.70;;;;;;5053470;28;20025;-72
2021/12/24 10:07:10;;;;;;;1.10;0.68;;;9.20;75.90;;;;;;5053360;28;20477;-72
2021/12/24 10:09:42;;;;;;;1.17;0.70;;;9.10;75.90;;;;;;5053289;28;20036;-75
2021/12/24 10:12:22;;;;;;;0.68;0.50;;;9.10;76.30;;;;;;5053329;28;20188;-76
2021/12/24 10:14:49;;;;;;;0.95;0.43;;;9.10;75.80;;;;;;5054627;28;20013;-76
2021/12/24 10:17:18;;;;;;;1.30;0.60;;;9.10;76.10;;;;;;5054023;28;20108;-73
2021/12/24 10:19:53;;;;;;;0.85;0.47;;;9.00;76.00;;;;;;5052692;28;20104;-73
2021/12/24 10:22:19;;;;;;;1.00;0.70;;;9.10;75.70;;;;;;5068659;28;20048;-72
2021/12/24 10:25:08;;;;;;;0.43;0.30;;;9.10;75.50;;;;;;5052830;28;20083;-72
2021/12/24 10:27:34;;;;;;;0.68;0.60;;;9.00;75.60;;;;;;5052690;28;20040;-72
2021/12/24 10:30:14;;;;;;;1.08;0.50;;;9.10;75.70;;;;;;5052753;28;20025;-73
2021/12/24 10:32:40;;;;;;;0.70;0.50;;;9.10;75.40;;;;;;5052588;28;20048;-72
2021/12/24 10:35:18;;;;;;;1.00;0.40;;;9.10;75.40;;;;;;5052654;28;20119;-76
2021/12/24 10:37:44;;;;;;;1.27;0.60;;;9.20;75.40;;;;;;5052724;28;20017;-73
2021/12/24 10:40:10;;;;;;;3.97;2.25;;;9.10;75.40;;;;;;5052722;28;20032;-72
2021/12/24 10:42:39;;;;;;;0.93;0.70;;;9.10;75.80;;;;;;5052259;28;20483;-71
2021/12/24 10:45:08;;;;;;;1.10;0.70;;;9.10;76.30;;;;;;5052592;28;20489;-72
2021/12/24 10:47:38;;;;;;;0.88;0.55;;;9.10;76.50;;;;;;5052149;28;20056;-71
2021/12/24 10:55:21;;;;;;;2.35;0.60;;;9.10;77.50;;;;;;5052540;28;20029;-71
2021/12/24 10:57:49;;;;;;;1.42;0.63;;;9.00;77.80;;;;;;5052600;28;20028;-71
2021/12/24 11:00:35;;;;;;;0.90;0.70;;;9.00;78.00;;;;;;5052541;28;20025;-72
2021/12/24 11:03:03;;;;;;;;;;;8.90;77.90;;;;;;5052949;28;20025;-72
2021/12/24 11:05:52;;;;;;;1.48;0.85;;;9.00;78.10;;;;;;5052213;28;20366;-74
2021/12/24 11:08:21;;;;;;;0.95;0.55;;;8.90;78.10;;;;;;5052194;28;20025;-72
2021/12/24 11:10:54;;;;;;;0.95;0.50;;;9.00;77.90;;;;;;5052371;28;20021;-71
2021/12/24 11:13:32;;;;;;;1.35;0.57;;;8.90;77.60;;;;;;5052429;28;20382;-73
2021/12/24 11:16:02;;;;;;;1.45;0.45;;;9.00;77.70;;;;;;5052396;28;20104;-73
2021/12/24 11:18:34;;;;;;;0.43;0.35;;;9.00;77.20;;;;;;5052423;28;20025;-72
2021/12/24 11:21:11;;;;;;;2.38;0.43;;;9.00;77.20;;;;;;5052154;28;20040;-72
2021/12/24 11:23:40;;;;;;;0.50;0.50;;;9.10;76.50;;;;;;5052111;28;20025;-71
2021/12/24 11:26:10;;;;;;;0.88;0.60;;;9.10;76.80;;;;;;5052368;28;20535;-72
2021/12/24 11:28:37;;;;;;;0.43;0.40;;;9.10;76.50;;;;;;5052207;28;20050;-72
2021/12/24 11:31:05;;;;;;;0.55;0.55;;;9.20;76.40;;;;;;5067421;28;20465;-72
2021/12/24 11:33:32;;;;;;;0.65;0.60;;;9.10;76.50;;;;;;5051969;28;20175;-72
2021/12/24 11:36:01;;;;;;;1.15;0.50;;;9.10;76.60;;;;;;5052169;28;20028;-72
2021/12/24 11:38:40;;;;;;;0.40;0.32;;;9.10;76.50;;;;;;5053086;28;20048;-72
2021/12/24 11:41:11;;;;;;;1.63;0.60;;;9.20;76.90;;;;;;5056164;28;20024;-72
2021/12/24 11:43:40;;;;;;;1.27;0.60;;;9.20;76.90;;;;;;5056222;28;20055;-72
2021/12/24 11:46:08;;;;;;;1.50;0.93;;;9.20;78.20;;;;;;5055873;28;20118;-72
2021/12/24 11:48:36;;;;;;;1.60;0.95;;;9.30;77.10;;;;;;5056124;28;20017;-72
2021/12/24 11:51:06;;;;;;;0.65;0.40;;;9.30;77.20;;;;;;5055920;28;20024;-72
2021/12/24 11:53:33;;;;;;;0.70;0.50;;;9.40;77.00;;;;;;5055728;28;20087;-71
2021/12/24 11:56:05;;;;;;;0.75;0.60;;;9.50;76.30;;;;;;5055690;28;20016;-76
2021/12/24 11:58:32;;;;;;;1.75;1.38;;;9.60;76.00;;;;;;5071036;28;20429;-73
2021/12/24 12:01:04;;;;;;;0.82;0.80;;;9.60;76.40;;;;;;5055595;28;20477;-74
2021/12/24 12:03:39;;;;;;;1.42;0.50;;;9.70;75.90;;;;;;5055735;28;20025;-77
2021/12/24 12:06:33;;;;;;;0.63;0.40;;;9.70;75.20;;;;;;5055618;28;20032;-77
2021/12/24 12:09:00;;;;;;;0.68;0.60;;;9.70;75.50;;;;;;5055548;28;20423;-72
2021/12/24 12:11:31;;;;;;;0.93;0.80;;;9.60;75.90;;;;;;5055682;28;20023;-71
2021/12/24 12:14:02;;;;;;;0.85;0.63;;;9.60;76.10;;;;;;5055670;28;20021;-72
2021/12/24 12:16:39;;;;;;;1.05;0.70;;;9.50;76.00;;;;;;5071094;28;20055;-73
2021/12/24 12:19:39;;;;;;;0.90;0.70;;;9.60;76.60;;;;;;5055631;28;20104;-71
2021/12/24 12:24:57;;;;;;;1.55;0.80;;;9.60;75.70;;;;;;5055541;28;20028;-71
2021/12/24 12:27:44;;;;;;;1.27;0.50;;;9.60;75.50;;;;;;5055418;28;20555;-71
2021/12/24 12:30:39;;;;;;;1.38;0.90;;;9.70;75.50;;;;;;5055479;28;20040;-72
2021/12/24 12:33:07;;;;;;;2.65;0.88;;;9.60;75.40;;;;;;5070457;28;20503;-72
2021/12/24 12:35:56;;;;;;;1.73;0.90;;;9.60;75.40;;;;;;5055329;28;20029;-72
2021/12/24 12:38:28;;;;;;;1.13;0.52;;;9.60;75.50;;;;;;5055205;28;20017;-72
2021/12/24 12:41:20;;;;;;;0.55;0.50;;;9.70;75.10;;;;;;5055202;28;20029;-72
2021/12/24 12:43:50;;;;;;;1.05;0.75;;;9.60;75.50;;;;;;5055268;28;20074;-72
2021/12/24 12:46:24;;;;;;;1.20;0.73;;;9.60;76.10;;;;;;5070555;28;20124;-72
2021/12/24 12:48:53;;;;;;;0.82;0.60;;;9.50;76.30;;;;;;5070537;28;20082;-72
2021/12/24 12:51:21;;;;;;;2.05;1.20;;;9.50;77.70;;;;;;5053733;28;20024;-72
2021/12/24 12:53:48;;;;;;;2.58;1.05;;;9.40;77.80;;;;;;5070350;28;20554;-73
2021/12/24 12:56:20;;;;;;;1.65;0.73;;;9.40;78.40;;;;;;5055013;28;20029;-72
2021/12/24 12:58:57;;;;;;;1.60;1.05;;;9.40;78.90;;;;;;5055088;28;20021;-72
2021/12/24 13:01:23;;;;;;;1.58;0.90;;;9.30;79.70;;;;;;5055124;28;20024;-72
2021/12/24 13:03:57;;;;;;;2.05;0.70;;;9.30;80.20;;;;;;5055055;28;20025;-72
2021/12/24 13:06:36;;;;;;;1.13;0.60;;;9.30;80.10;;;;;;5054819;28;20033;-72
2021/12/24 13:09:04;;;;;;;0.82;0.60;;;9.30;80.50;;;;;;5054594;28;20031;-74
2021/12/24 13:11:35;;;;;;;1.13;0.60;;;9.30;79.90;;;;;;5054862;28;20363;-77
2021/12/24 13:14:02;;;;;;;2.22;1.10;;;9.40;80.80;;;;;;5055046;28;20017;-73
2021/12/24 13:16:38;;;;;;;2.67;1.58;;;9.30;80.10;;;;;;5054705;28;20028;-74
2021/12/24 13:25:06;;;;;;;1.23;0.63;;;9.40;79.50;;;;;;5056201;28;20319;-74
2021/12/24 13:27:37;;;;;;;7.07;1.30;;;9.30;79.80;;;;;;5049047;28;20048;-72
2021/12/24 13:30:32;;;;;;;0.98;0.65;;;9.30;79.80;;;;;;5055134;28;20054;-73
2021/12/24 13:33:07;;;;;;;0.50;0.50;;;9.30;79.30;;;;;;5042103;28;20057;-78
2021/12/24 13:35:42;;;;;;;1.38;0.80;;;9.30;79.10;;;;;;5055000;28;20032;-77
2021/12/24 13:38:17;;;;;;;1.58;1.02;;;9.30;79.30;;;;;;5054307;28;20024;-77
2021/12/24 13:40:44;;;;;;;0.35;0.35;;;9.30;79.40;;;;;;5054466;28;20028;-77
2021/12/24 13:43:13;;;;;;;0.85;0.57;;;9.30;79.30;;;;;;5054464;28;20401;-77
2021/12/24 13:45:43;;;;;;;1.77;1.10;;;9.30;79.60;;;;;;5054241;28;20122;-72
2021/12/24 13:48:16;;;;;;;1.52;0.80;;;9.30;80.10;;;;;;5054347;28;20028;-74
2021/12/24 13:56:13;;;;;;;2.08;1.00;;;9.30;79.60;;;;;;5054142;28;20040;-73
2021/12/24 13:58:39;;;;;;;3.72;1.05;;;9.30;79.40;;;;;;5054004;28;20028;-73
2021/12/24 14:01:04;;;;;;;1.15;0.68;;;9.30;79.70;;;;;;5053602;28;20025;-73
2021/12/24 14:03:33;;;;;;;0.95;0.50;;;9.40;79.20;;;;;;5054109;28;20056;-72
2021/12/24 14:06:02;;;;;;;0.40;0.40;;;9.40;78.80;;;;;;5053656;28;20029;-71
2021/12/24 14:08:30;;;;;;;0.90;0.50;;;9.40;78.70;;;;;;5053779;28;20025;-72
2021/12/24 14:11:14;;;;;;;1.30;0.60;;;9.40;78.80;;;;;;5053308;28;20033;-74
2021/12/24 14:13:51;;;;;;;1.67;0.80;;;9.40;78.80;;;;;;5053861;28;20028;-74
2021/12/24 14:16:38;;;;;;;0.93;0.65;;;9.50;78.70;;;;;;5053833;28;20039;-73
2021/12/24 14:19:15;;;;;;;1.98;0.90;;;9.50;78.40;;;;;;5053577;28;20021;-73
2021/12/24 14:21:45;;;;;;;0.50;0.40;;;9.50;78.80;;;;;;5053670;28;20044;-73
2021/12/24 14:24:14;;;;;;;0.88;0.65;;;9.50;79.00;;;;;;5053519;28;20118;-73
2021/12/24 14:26:51;;;;;;;0.73;0.60;;;9.40;78.50;;;;;;5053297;28;20032;-74
2021/12/24 14:29:44;;;;;;;0.98;0.50;;;9.40;78.60;;;;;;5053411;28;20040;-73
2021/12/24 14:32:15;;;;;;;0.93;0.70;;;9.40;78.50;;;;;;5050585;28;20040;-73
2021/12/24 14:34:48;;;;;;;5.00;4.18;;;9.40;78.50;;;;;;5053000;28;20037;-72
2021/12/24 14:37:25;;;;;;;31.05;24.92;;;9.40;78.40;;;;;;5053139;28;20116;-73
2021/12/24 14:39:58;;;;;;;3.08;2.55;;;9.40;78.20;;;;;;5053171;28;20025;-75
2021/12/24 14:42:27;;;;;;;1.02;0.88;;;9.40;78.40;;;;;;5053212;28;20485;-76
2021/12/24 14:45:18;;;;;;;0.63;0.60;;;9.40;78.50;;;;;;5053063;28;20029;-76
2021/12/24 14:48:07;;;;;;;1.15;0.60;;;9.40;78.40;;;;;;5053182;28;20029;-76
2021/12/24 14:50:36;;;;;;;1.60;1.20;;;9.40;78.40;;;;;;5052635;28;20057;-76
2021/12/24 14:53:08;;;;;;;2.05;1.38;;;9.40;78.70;;;;;;5052548;28;20116;-76
2021/12/24 14:56:02;;;;;;;3.63;2.15;;;9.40;78.60;;;;;;5053161;28;20032;-77
2021/12/24 14:58:44;;;;;;;3.28;1.05;;;9.50;78.70;;;;;;5053015;28;20378;-77
2021/12/24 15:01:10;;;;;;;0.93;0.40;;;9.50;78.50;;;;;;5052770;28;20037;-76
2021/12/24 15:03:38;;;;;;;1.00;0.70;;;9.50;78.20;;;;;;5052965;28;20073;-76